sensor_id;sensor_type;location;lat;lon;timestamp;P1;durP1;ratioP1;P2;durP2;ratioP2
71646;SDS011;59706;45.634;11.704;2024-03-29T00:02:22;12.10;;;6.70;;
71646;SDS011;59706;45.634;11.704;2024-03-29T00:04:48;12.90;;;6.10;;
71646;SDS011;59706;45.634;11.704;2024-03-29T00:07:14;11.30;;;6.40;;
71646;SDS011;59706;45.634;11.704;2024-03-29T00:09:40;12.60;;;6.80;;
71646;SDS011;59706;45.634;11.704;2024-03-29T00:12:06;12.10;;;6.40;;
71646;SDS011;59706;45.634;11.704;2024-03-29T00:14:32;11.70;;;6.40;;
71646;SDS011;59706;45.634;11.704;2024-03-29T00:16:58;12.90;;;8.00;;
71646;SDS011;59706;45.634;11.704;2024-03-29T00:19:24;12.90;;;6.70;;
71646;SDS011;59706;45.634;11.704;2024-03-29T00:21:49;13.90;;;7.10;;
71646;SDS011;59706;45.634;11.704;2024-03-29T00:24:15;12.20;;;7.40;;
71646;SDS011;59706;45.634;11.704;2024-03-29T00:26:41;11.10;;;6.10;;
71646;SDS011;59706;45.634;11.704;2024-03-29T00:29:07;11.00;;;5.80;;
71646;SDS011;59706;45.634;11.704;2024-03-29T00:31:32;10.60;;;6.10;;
71646;SDS011;59706;45.634;11.704;2024-03-29T00:33:58;11.20;;;6.50;;
71646;SDS011;59706;45.634;11.704;2024-03-29T00:36:24;11.70;;;6.60;;
71646;SDS011;59706;45.634;11.704;2024-03-29T00:38:50;13.70;;;7.60;;
71646;SDS011;59706;45.634;11.704;2024-03-29T00:41:15;11.60;;;6.60;;
71646;SDS011;59706;45.634;11.704;2024-03-29T00:43:41;11.90;;;7.40;;
71646;SDS011;59706;45.634;11.704;2024-03-29T00:46:07;11.80;;;7.80;;
71646;SDS011;59706;45.634;11.704;2024-03-29T00:48:33;12.20;;;7.00;;
71646;SDS011;59706;45.634;11.704;2024-03-29T00:50:58;12.80;;;8.00;;
71646;SDS011;59706;45.634;11.704;2024-03-29T00:53:24;14.20;;;8.70;;
71646;SDS011;59706;45.634;11.704;2024-03-29T00:55:50;12.80;;;7.60;;
71646;SDS011;59706;45.634;11.704;2024-03-29T00:58:16;12.10;;;6.90;;
71646;SDS011;59706;45.634;11.704;2024-03-29T01:00:42;12.60;;;7.90;;
71646;SDS011;59706;45.634;11.704;2024-03-29T01:03:07;11.00;;;5.80;;
71646;SDS011;59706;45.634;11.704;2024-03-29T01:05:33;12.90;;;6.70;;
71646;SDS011;59706;45.634;11.704;2024-03-29T01:07:59;11.40;;;6.60;;
71646;SDS011;59706;45.634;11.704;2024-03-29T01:10:25;11.40;;;6.50;;
71646;SDS011;59706;45.634;11.704;2024-03-29T01:12:50;12.50;;;7.70;;
71646;SDS011;59706;45.634;11.704;2024-03-29T01:15:16;12.40;;;7.50;;
71646;SDS011;59706;45.634;11.704;2024-03-29T01:17:42;12.70;;;7.90;;
71646;SDS011;59706;45.634;11.704;2024-03-29T01:20:08;12.60;;;6.60;;
71646;SDS011;59706;45.634;11.704;2024-03-29T01:22:34;11.70;;;6.10;;
71646;SDS011;59706;45.634;11.704;2024-03-29T01:25:00;11.60;;;6.70;;
71646;SDS011;59706;45.634;11.704;2024-03-29T01:27:28;11.40;;;6.60;;
71646;SDS011;59706;45.634;11.704;2024-03-29T01:29:54;11.60;;;6.50;;
71646;SDS011;59706;45.634;11.704;2024-03-29T01:32:20;10.60;;;5.10;;
71646;SDS011;59706;45.634;11.704;2024-03-29T01:34:46;10.30;;;5.10;;
71646;SDS011;59706;45.634;11.704;2024-03-29T01:37:11;11.80;;;6.90;;
71646;SDS011;59706;45.634;11.704;2024-03-29T01:39:37;10.80;;;6.10;;
71646;SDS011;59706;45.634;11.704;2024-03-29T01:42:03;11.50;;;6.60;;
71646;SDS011;59706;45.634;11.704;2024-03-29T01:44:29;11.60;;;7.10;;
71646;SDS011;59706;45.634;11.704;2024-03-29T01:46:55;11.50;;;6.90;;
71646;SDS011;59706;45.634;11.704;2024-03-29T01:49:21;10.60;;;6.20;;
71646;SDS011;59706;45.634;11.704;2024-03-29T01:51:47;9.70;;;5.30;;
71646;SDS011;59706;45.634;11.704;2024-03-29T01:54:13;10.20;;;5.70;;
71646;SDS011;59706;45.634;11.704;2024-03-29T01:56:39;10.40;;;5.90;;
71646;SDS011;59706;45.634;11.704;2024-03-29T01:59:14;10.80;;;6.00;;
71646;SDS011;59706;45.634;11.704;2024-03-29T02:01:41;9.60;;;5.40;;
71646;SDS011;59706;45.634;11.704;2024-03-29T02:04:09;8.80;;;4.70;;
71646;SDS011;59706;45.634;11.704;2024-03-29T02:06:36;10.40;;;5.80;;
71646;SDS011;59706;45.634;11.704;2024-03-29T02:09:06;9.40;;;5.50;;
71646;SDS011;59706;45.634;11.704;2024-03-29T02:11:34;10.20;;;5.50;;
71646;SDS011;59706;45.634;11.704;2024-03-29T02:14:00;10.20;;;4.90;;
71646;SDS011;59706;45.634;11.704;2024-03-29T02:16:26;8.60;;;3.70;;
71646;SDS011;59706;45.634;11.704;2024-03-29T02:18:52;10.20;;;4.20;;
71646;SDS011;59706;45.634;11.704;2024-03-29T02:21:18;8.90;;;5.10;;
71646;SDS011;59706;45.634;11.704;2024-03-29T02:23:46;10.90;;;5.90;;
71646;SDS011;59706;45.634;11.704;2024-03-29T02:26:13;11.20;;;6.20;;
71646;SDS011;59706;45.634;11.704;2024-03-29T02:28:39;9.80;;;5.50;;
71646;SDS011;59706;45.634;11.704;2024-03-29T02:31:05;9.30;;;5.00;;
71646;SDS011;59706;45.634;11.704;2024-03-29T02:33:30;10.60;;;6.80;;
71646;SDS011;59706;45.634;11.704;2024-03-29T02:35:56;12.40;;;7.90;;
71646;SDS011;59706;45.634;11.704;2024-03-29T02:38:22;11.00;;;6.40;;
71646;SDS011;59706;45.634;11.704;2024-03-29T02:40:48;13.50;;;8.30;;
71646;SDS011;59706;45.634;11.704;2024-03-29T02:43:13;10.40;;;5.70;;
71646;SDS011;59706;45.634;11.704;2024-03-29T02:45:39;10.40;;;6.10;;
71646;SDS011;59706;45.634;11.704;2024-03-29T02:48:05;10.00;;;5.70;;
71646;SDS011;59706;45.634;11.704;2024-03-29T02:50:31;10.60;;;6.20;;
71646;SDS011;59706;45.634;11.704;2024-03-29T02:52:57;10.30;;;6.40;;
71646;SDS011;59706;45.634;11.704;2024-03-29T02:55:23;9.10;;;4.90;;
71646;SDS011;59706;45.634;11.704;2024-03-29T02:57:49;8.40;;;3.90;;
71646;SDS011;59706;45.634;11.704;2024-03-29T03:00:15;9.00;;;5.00;;
71646;SDS011;59706;45.634;11.704;2024-03-29T03:02:41;10.10;;;5.20;;
71646;SDS011;59706;45.634;11.704;2024-03-29T03:05:07;9.30;;;5.00;;
71646;SDS011;59706;45.634;11.704;2024-03-29T03:07:34;10.50;;;5.60;;
71646;SDS011;59706;45.634;11.704;2024-03-29T03:10:19;9.70;;;5.20;;
71646;SDS011;59706;45.634;11.704;2024-03-29T03:13:17;9.60;;;5.50;;
71646;SDS011;59706;45.634;11.704;2024-03-29T03:15:43;9.10;;;5.00;;
71646;SDS011;59706;45.634;11.704;2024-03-29T03:18:09;10.00;;;5.50;;
71646;SDS011;59706;45.634;11.704;2024-03-29T03:20:34;10.20;;;5.70;;
71646;SDS011;59706;45.634;11.704;2024-03-29T03:23:01;10.00;;;5.30;;
71646;SDS011;59706;45.634;11.704;2024-03-29T03:25:27;9.70;;;5.40;;
71646;SDS011;59706;45.634;11.704;2024-03-29T03:27:53;11.20;;;6.20;;
71646;SDS011;59706;45.634;11.704;2024-03-29T03:30:19;8.20;;;4.20;;
71646;SDS011;59706;45.634;11.704;2024-03-29T03:32:45;9.80;;;5.20;;
71646;SDS011;59706;45.634;11.704;2024-03-29T03:35:10;9.40;;;4.90;;
71646;SDS011;59706;45.634;11.704;2024-03-29T03:37:36;8.90;;;3.90;;
71646;SDS011;59706;45.634;11.704;2024-03-29T03:40:02;8.60;;;4.10;;
71646;SDS011;59706;45.634;11.704;2024-03-29T03:42:29;8.20;;;4.00;;
71646;SDS011;59706;45.634;11.704;2024-03-29T03:44:56;7.90;;;3.80;;
71646;SDS011;59706;45.634;11.704;2024-03-29T03:47:21;9.00;;;4.30;;
71646;SDS011;59706;45.634;11.704;2024-03-29T03:49:47;10.30;;;5.90;;
71646;SDS011;59706;45.634;11.704;2024-03-29T03:52:13;9.10;;;5.00;;
71646;SDS011;59706;45.634;11.704;2024-03-29T03:54:39;10.10;;;5.70;;
71646;SDS011;59706;45.634;11.704;2024-03-29T03:57:05;10.70;;;5.70;;
71646;SDS011;59706;45.634;11.704;2024-03-29T03:59:31;10.60;;;5.40;;
71646;SDS011;59706;45.634;11.704;2024-03-29T04:01:56;8.80;;;4.50;;
71646;SDS011;59706;45.634;11.704;2024-03-29T04:04:22;8.20;;;4.10;;
71646;SDS011;59706;45.634;11.704;2024-03-29T04:06:48;8.00;;;4.00;;
71646;SDS011;59706;45.634;11.704;2024-03-29T04:09:14;8.30;;;3.90;;
71646;SDS011;59706;45.634;11.704;2024-03-29T04:11:43;7.50;;;3.70;;
71646;SDS011;59706;45.634;11.704;2024-03-29T04:14:09;7.80;;;3.60;;
71646;SDS011;59706;45.634;11.704;2024-03-29T04:16:35;7.40;;;3.80;;
71646;SDS011;59706;45.634;11.704;2024-03-29T04:19:01;7.40;;;3.70;;
71646;SDS011;59706;45.634;11.704;2024-03-29T04:21:27;8.40;;;3.90;;
71646;SDS011;59706;45.634;11.704;2024-03-29T04:23:53;8.70;;;3.80;;
71646;SDS011;59706;45.634;11.704;2024-03-29T04:26:18;7.90;;;3.70;;
71646;SDS011;59706;45.634;11.704;2024-03-29T04:28:44;7.60;;;3.60;;
71646;SDS011;59706;45.634;11.704;2024-03-29T04:31:10;7.50;;;3.50;;
71646;SDS011;59706;45.634;11.704;2024-03-29T04:33:36;7.60;;;3.80;;
71646;SDS011;59706;45.634;11.704;2024-03-29T04:36:27;8.00;;;4.00;;
71646;SDS011;59706;45.634;11.704;2024-03-29T04:39:17;7.50;;;3.80;;
71646;SDS011;59706;45.634;11.704;2024-03-29T04:41:43;8.40;;;3.40;;
71646;SDS011;59706;45.634;11.704;2024-03-29T04:44:11;7.90;;;3.90;;
71646;SDS011;59706;45.634;11.704;2024-03-29T04:46:39;7.50;;;3.90;;
71646;SDS011;59706;45.634;11.704;2024-03-29T04:49:05;8.00;;;4.00;;
71646;SDS011;59706;45.634;11.704;2024-03-29T04:51:31;8.10;;;3.40;;
71646;SDS011;59706;45.634;11.704;2024-03-29T04:53:58;8.30;;;3.60;;
71646;SDS011;59706;45.634;11.704;2024-03-29T04:56:24;7.60;;;3.40;;
71646;SDS011;59706;45.634;11.704;2024-03-29T04:58:50;9.30;;;3.30;;
71646;SDS011;59706;45.634;11.704;2024-03-29T05:01:16;7.40;;;3.40;;
71646;SDS011;59706;45.634;11.704;2024-03-29T05:03:43;8.10;;;3.60;;
71646;SDS011;59706;45.634;11.704;2024-03-29T05:06:09;7.80;;;3.50;;
71646;SDS011;59706;45.634;11.704;2024-03-29T05:08:35;7.80;;;3.40;;
71646;SDS011;59706;45.634;11.704;2024-03-29T05:11:00;7.60;;;3.80;;
71646;SDS011;59706;45.634;11.704;2024-03-29T05:13:26;7.50;;;3.40;;
71646;SDS011;59706;45.634;11.704;2024-03-29T05:15:52;7.70;;;3.40;;
71646;SDS011;59706;45.634;11.704;2024-03-29T05:18:18;8.20;;;3.70;;
71646;SDS011;59706;45.634;11.704;2024-03-29T05:20:43;7.50;;;3.70;;
71646;SDS011;59706;45.634;11.704;2024-03-29T05:23:14;8.30;;;3.60;;
71646;SDS011;59706;45.634;11.704;2024-03-29T05:25:40;8.10;;;3.80;;
71646;SDS011;59706;45.634;11.704;2024-03-29T05:28:07;7.90;;;3.60;;
71646;SDS011;59706;45.634;11.704;2024-03-29T05:30:33;7.20;;;3.80;;
71646;SDS011;59706;45.634;11.704;2024-03-29T05:33:02;8.70;;;4.10;;
71646;SDS011;59706;45.634;11.704;2024-03-29T05:35:30;9.20;;;4.20;;
71646;SDS011;59706;45.634;11.704;2024-03-29T05:37:56;8.10;;;4.00;;
71646;SDS011;59706;45.634;11.704;2024-03-29T05:40:22;7.90;;;4.00;;
71646;SDS011;59706;45.634;11.704;2024-03-29T05:42:50;7.90;;;4.10;;
71646;SDS011;59706;45.634;11.704;2024-03-29T05:45:24;8.10;;;4.10;;
71646;SDS011;59706;45.634;11.704;2024-03-29T05:47:53;8.50;;;4.00;;
71646;SDS011;59706;45.634;11.704;2024-03-29T05:50:21;8.10;;;3.80;;
71646;SDS011;59706;45.634;11.704;2024-03-29T05:52:48;9.50;;;5.00;;
71646;SDS011;59706;45.634;11.704;2024-03-29T05:55:14;7.60;;;3.70;;
71646;SDS011;59706;45.634;11.704;2024-03-29T05:57:40;7.30;;;3.30;;
71646;SDS011;59706;45.634;11.704;2024-03-29T06:00:11;7.10;;;3.30;;
71646;SDS011;59706;45.634;11.704;2024-03-29T06:02:42;6.50;;;3.20;;
71646;SDS011;59706;45.634;11.704;2024-03-29T06:05:10;7.50;;;3.20;;
71646;SDS011;59706;45.634;11.704;2024-03-29T06:07:37;8.00;;;3.40;;
71646;SDS011;59706;45.634;11.704;2024-03-29T06:10:03;7.20;;;3.60;;
71646;SDS011;59706;45.634;11.704;2024-03-29T06:12:32;7.10;;;3.30;;
71646;SDS011;59706;45.634;11.704;2024-03-29T06:14:57;7.10;;;3.30;;
71646;SDS011;59706;45.634;11.704;2024-03-29T06:17:45;7.80;;;3.30;;
71646;SDS011;59706;45.634;11.704;2024-03-29T06:20:17;7.40;;;3.60;;
71646;SDS011;59706;45.634;11.704;2024-03-29T06:22:44;6.40;;;2.90;;
71646;SDS011;59706;45.634;11.704;2024-03-29T06:25:10;6.70;;;3.40;;
71646;SDS011;59706;45.634;11.704;2024-03-29T06:27:37;7.80;;;3.10;;
71646;SDS011;59706;45.634;11.704;2024-03-29T06:30:04;7.40;;;3.50;;
71646;SDS011;59706;45.634;11.704;2024-03-29T06:32:31;7.10;;;3.00;;
71646;SDS011;59706;45.634;11.704;2024-03-29T06:34:58;7.50;;;3.50;;
71646;SDS011;59706;45.634;11.704;2024-03-29T06:37:24;7.30;;;3.10;;
71646;SDS011;59706;45.634;11.704;2024-03-29T06:39:53;6.70;;;3.40;;
71646;SDS011;59706;45.634;11.704;2024-03-29T06:42:19;7.70;;;3.20;;
71646;SDS011;59706;45.634;11.704;2024-03-29T06:44:45;7.10;;;3.20;;
71646;SDS011;59706;45.634;11.704;2024-03-29T06:47:11;8.00;;;3.20;;
71646;SDS011;59706;45.634;11.704;2024-03-29T06:49:37;8.60;;;3.30;;
71646;SDS011;59706;45.634;11.704;2024-03-29T06:52:03;9.50;;;3.80;;
71646;SDS011;59706;45.634;11.704;2024-03-29T06:54:30;7.30;;;3.40;;
71646;SDS011;59706;45.634;11.704;2024-03-29T06:56:58;8.30;;;3.50;;
71646;SDS011;59706;45.634;11.704;2024-03-29T06:59:26;8.90;;;3.60;;
71646;SDS011;59706;45.634;11.704;2024-03-29T07:01:53;8.60;;;3.70;;
71646;SDS011;59706;45.634;11.704;2024-03-29T07:04:21;8.30;;;3.10;;
71646;SDS011;59706;45.634;11.704;2024-03-29T07:06:47;7.90;;;3.50;;
71646;SDS011;59706;45.634;11.704;2024-03-29T07:09:20;7.10;;;3.40;;
71646;SDS011;59706;45.634;11.704;2024-03-29T07:11:51;8.30;;;3.40;;
71646;SDS011;59706;45.634;11.704;2024-03-29T07:14:18;8.00;;;3.50;;
71646;SDS011;59706;45.634;11.704;2024-03-29T07:16:46;8.90;;;3.30;;
71646;SDS011;59706;45.634;11.704;2024-03-29T07:19:28;7.50;;;3.00;;
71646;SDS011;59706;45.634;11.704;2024-03-29T07:22:16;9.80;;;3.20;;
71646;SDS011;59706;45.634;11.704;2024-03-29T07:25:09;7.30;;;2.80;;
71646;SDS011;59706;45.634;11.704;2024-03-29T07:27:38;8.00;;;3.20;;
71646;SDS011;59706;45.634;11.704;2024-03-29T07:30:28;8.00;;;3.10;;
71646;SDS011;59706;45.634;11.704;2024-03-29T07:33:30;9.10;;;3.30;;
71646;SDS011;59706;45.634;11.704;2024-03-29T07:35:56;9.10;;;3.20;;
71646;SDS011;59706;45.634;11.704;2024-03-29T07:38:23;13.30;;;6.80;;
71646;SDS011;59706;45.634;11.704;2024-03-29T07:40:49;14.00;;;7.50;;
71646;SDS011;59706;45.634;11.704;2024-03-29T07:43:16;13.50;;;7.00;;
71646;SDS011;59706;45.634;11.704;2024-03-29T07:45:43;13.40;;;7.60;;
71646;SDS011;59706;45.634;11.704;2024-03-29T07:48:16;13.00;;;6.80;;
71646;SDS011;59706;45.634;11.704;2024-03-29T07:50:45;14.20;;;6.80;;
71646;SDS011;59706;45.634;11.704;2024-03-29T07:53:12;12.60;;;6.50;;
71646;SDS011;59706;45.634;11.704;2024-03-29T07:55:39;12.00;;;6.60;;
71646;SDS011;59706;45.634;11.704;2024-03-29T07:58:06;12.10;;;5.90;;
71646;SDS011;59706;45.634;11.704;2024-03-29T08:00:34;10.80;;;6.00;;
71646;SDS011;59706;45.634;11.704;2024-03-29T08:03:01;10.40;;;5.20;;
71646;SDS011;59706;45.634;11.704;2024-03-29T08:05:28;10.30;;;5.30;;
71646;SDS011;59706;45.634;11.704;2024-03-29T08:07:54;10.70;;;5.30;;
71646;SDS011;59706;45.634;11.704;2024-03-29T08:10:20;9.50;;;4.60;;
71646;SDS011;59706;45.634;11.704;2024-03-29T08:12:46;8.70;;;4.60;;
71646;SDS011;59706;45.634;11.704;2024-03-29T08:15:12;11.60;;;4.60;;
71646;SDS011;59706;45.634;11.704;2024-03-29T08:17:38;8.30;;;4.10;;
71646;SDS011;59706;45.634;11.704;2024-03-29T08:20:04;7.40;;;3.40;;
71646;SDS011;59706;45.634;11.704;2024-03-29T08:22:30;8.90;;;3.40;;
71646;SDS011;59706;45.634;11.704;2024-03-29T08:24:59;8.50;;;3.70;;
71646;SDS011;59706;45.634;11.704;2024-03-29T08:27:28;9.10;;;3.50;;
71646;SDS011;59706;45.634;11.704;2024-03-29T08:29:54;7.30;;;3.20;;
71646;SDS011;59706;45.634;11.704;2024-03-29T08:32:20;9.50;;;2.90;;
71646;SDS011;59706;45.634;11.704;2024-03-29T08:34:47;7.80;;;3.10;;
71646;SDS011;59706;45.634;11.704;2024-03-29T08:37:13;8.30;;;3.40;;
71646;SDS011;59706;45.634;11.704;2024-03-29T08:39:40;8.20;;;3.60;;
71646;SDS011;59706;45.634;11.704;2024-03-29T08:42:07;7.70;;;3.00;;
71646;SDS011;59706;45.634;11.704;2024-03-29T08:44:36;7.90;;;3.40;;
71646;SDS011;59706;45.634;11.704;2024-03-29T08:47:04;8.70;;;3.00;;
71646;SDS011;59706;45.634;11.704;2024-03-29T08:49:30;8.40;;;3.00;;
71646;SDS011;59706;45.634;11.704;2024-03-29T08:51:56;6.70;;;2.60;;
71646;SDS011;59706;45.634;11.704;2024-03-29T08:54:24;10.20;;;3.10;;
71646;SDS011;59706;45.634;11.704;2024-03-29T08:56:50;7.20;;;2.80;;
71646;SDS011;59706;45.634;11.704;2024-03-29T08:59:16;7.70;;;3.00;;
71646;SDS011;59706;45.634;11.704;2024-03-29T09:01:45;9.20;;;2.80;;
71646;SDS011;59706;45.634;11.704;2024-03-29T09:04:19;7.70;;;2.60;;
71646;SDS011;59706;45.634;11.704;2024-03-29T09:06:55;7.70;;;2.80;;
71646;SDS011;59706;45.634;11.704;2024-03-29T09:09:21;7.50;;;3.10;;
71646;SDS011;59706;45.634;11.704;2024-03-29T09:11:52;7.10;;;2.80;;
71646;SDS011;59706;45.634;11.704;2024-03-29T09:14:27;6.80;;;2.20;;
71646;SDS011;59706;45.634;11.704;2024-03-29T09:17:05;8.90;;;3.20;;
71646;SDS011;59706;45.634;11.704;2024-03-29T09:19:31;7.00;;;2.60;;
71646;SDS011;59706;45.634;11.704;2024-03-29T09:21:58;7.20;;;2.90;;
71646;SDS011;59706;45.634;11.704;2024-03-29T09:24:24;6.70;;;2.40;;
71646;SDS011;59706;45.634;11.704;2024-03-29T09:26:53;7.40;;;2.80;;
71646;SDS011;59706;45.634;11.704;2024-03-29T09:29:18;6.80;;;2.40;;
71646;SDS011;59706;45.634;11.704;2024-03-29T09:31:48;6.90;;;2.40;;
71646;SDS011;59706;45.634;11.704;2024-03-29T09:34:13;6.80;;;2.40;;
71646;SDS011;59706;45.634;11.704;2024-03-29T09:36:42;6.70;;;2.90;;
71646;SDS011;59706;45.634;11.704;2024-03-29T09:39:12;8.40;;;3.10;;
71646;SDS011;59706;45.634;11.704;2024-03-29T09:41:38;7.50;;;2.30;;
71646;SDS011;59706;45.634;11.704;2024-03-29T09:44:14;7.10;;;2.40;;
71646;SDS011;59706;45.634;11.704;2024-03-29T09:47:08;6.40;;;2.20;;
71646;SDS011;59706;45.634;11.704;2024-03-29T09:49:51;6.70;;;2.30;;
71646;SDS011;59706;45.634;11.704;2024-03-29T09:52:24;7.70;;;2.90;;
71646;SDS011;59706;45.634;11.704;2024-03-29T09:54:50;6.90;;;2.50;;
71646;SDS011;59706;45.634;11.704;2024-03-29T09:57:16;8.90;;;2.70;;
71646;SDS011;59706;45.634;11.704;2024-03-29T09:59:42;7.80;;;3.00;;
71646;SDS011;59706;45.634;11.704;2024-03-29T10:02:15;6.70;;;2.90;;
71646;SDS011;59706;45.634;11.704;2024-03-29T10:04:43;7.00;;;2.90;;
71646;SDS011;59706;45.634;11.704;2024-03-29T10:07:12;7.60;;;2.30;;
71646;SDS011;59706;45.634;11.704;2024-03-29T10:09:39;7.00;;;2.60;;
71646;SDS011;59706;45.634;11.704;2024-03-29T10:12:05;7.10;;;2.40;;
71646;SDS011;59706;45.634;11.704;2024-03-29T10:14:31;6.50;;;2.40;;
71646;SDS011;59706;45.634;11.704;2024-03-29T10:16:58;6.70;;;2.60;;
71646;SDS011;59706;45.634;11.704;2024-03-29T10:19:23;6.20;;;2.40;;
71646;SDS011;59706;45.634;11.704;2024-03-29T10:21:49;6.30;;;2.40;;
71646;SDS011;59706;45.634;11.704;2024-03-29T10:24:16;6.00;;;1.90;;
71646;SDS011;59706;45.634;11.704;2024-03-29T10:26:46;8.30;;;2.50;;
71646;SDS011;59706;45.634;11.704;2024-03-29T10:29:13;6.70;;;2.50;;
71646;SDS011;59706;45.634;11.704;2024-03-29T10:31:39;6.10;;;2.10;;
71646;SDS011;59706;45.634;11.704;2024-03-29T10:34:09;7.00;;;2.40;;
71646;SDS011;59706;45.634;11.704;2024-03-29T10:36:40;5.90;;;2.40;;
71646;SDS011;59706;45.634;11.704;2024-03-29T10:39:11;5.80;;;2.40;;
71646;SDS011;59706;45.634;11.704;2024-03-29T10:41:41;6.90;;;2.50;;
71646;SDS011;59706;45.634;11.704;2024-03-29T10:44:12;6.00;;;2.50;;
71646;SDS011;59706;45.634;11.704;2024-03-29T10:46:39;6.90;;;2.60;;
71646;SDS011;59706;45.634;11.704;2024-03-29T10:49:08;6.60;;;2.40;;
71646;SDS011;59706;45.634;11.704;2024-03-29T10:51:41;6.50;;;2.40;;
71646;SDS011;59706;45.634;11.704;2024-03-29T10:54:11;6.20;;;2.20;;
71646;SDS011;59706;45.634;11.704;2024-03-29T10:56:38;7.10;;;2.10;;
71646;SDS011;59706;45.634;11.704;2024-03-29T10:59:49;8.40;;;2.50;;
71646;SDS011;59706;45.634;11.704;2024-03-29T11:05:35;6.00;;;2.30;;
71646;SDS011;59706;45.634;11.704;2024-03-29T11:08:06;7.30;;;2.80;;
71646;SDS011;59706;45.634;11.704;2024-03-29T11:10:44;6.80;;;2.30;;
71646;SDS011;59706;45.634;11.704;2024-03-29T11:13:23;5.50;;;2.10;;
71646;SDS011;59706;45.634;11.704;2024-03-29T11:15:57;6.60;;;2.30;;
71646;SDS011;59706;45.634;11.704;2024-03-29T11:18:29;6.50;;;2.30;;
71646;SDS011;59706;45.634;11.704;2024-03-29T11:20:57;6.60;;;2.30;;
71646;SDS011;59706;45.634;11.704;2024-03-29T11:23:25;7.10;;;1.90;;
71646;SDS011;59706;45.634;11.704;2024-03-29T11:25:53;7.00;;;2.30;;
71646;SDS011;59706;45.634;11.704;2024-03-29T11:28:28;6.70;;;2.00;;
71646;SDS011;59706;45.634;11.704;2024-03-29T11:31:05;7.20;;;2.30;;
71646;SDS011;59706;45.634;11.704;2024-03-29T11:33:33;6.10;;;1.80;;
71646;SDS011;59706;45.634;11.704;2024-03-29T11:38:51;7.10;;;1.80;;
71646;SDS011;59706;45.634;11.704;2024-03-29T11:41:19;6.90;;;2.10;;
71646;SDS011;59706;45.634;11.704;2024-03-29T11:43:52;6.60;;;2.20;;
71646;SDS011;59706;45.634;11.704;2024-03-29T11:46:19;6.20;;;2.30;;
71646;SDS011;59706;45.634;11.704;2024-03-29T11:48:46;7.30;;;2.20;;
71646;SDS011;59706;45.634;11.704;2024-03-29T11:51:16;6.30;;;2.20;;
71646;SDS011;59706;45.634;11.704;2024-03-29T11:53:44;6.80;;;1.90;;
71646;SDS011;59706;45.634;11.704;2024-03-29T11:56:11;7.00;;;2.10;;
71646;SDS011;59706;45.634;11.704;2024-03-29T11:58:40;6.50;;;2.40;;
71646;SDS011;59706;45.634;11.704;2024-03-29T12:01:07;6.50;;;1.80;;
71646;SDS011;59706;45.634;11.704;2024-03-29T12:03:38;6.30;;;1.70;;
71646;SDS011;59706;45.634;11.704;2024-03-29T12:06:06;6.30;;;1.80;;
71646;SDS011;59706;45.634;11.704;2024-03-29T12:08:34;6.30;;;2.20;;
71646;SDS011;59706;45.634;11.704;2024-03-29T12:11:02;6.10;;;2.30;;
71646;SDS011;59706;45.634;11.704;2024-03-29T12:13:29;6.20;;;2.40;;
71646;SDS011;59706;45.634;11.704;2024-03-29T12:15:56;6.40;;;1.90;;
71646;SDS011;59706;45.634;11.704;2024-03-29T12:18:24;5.40;;;1.90;;
71646;SDS011;59706;45.634;11.704;2024-03-29T12:20:55;6.80;;;2.40;;
71646;SDS011;59706;45.634;11.704;2024-03-29T12:23:21;5.90;;;2.00;;
71646;SDS011;59706;45.634;11.704;2024-03-29T12:25:49;6.30;;;2.10;;
71646;SDS011;59706;45.634;11.704;2024-03-29T12:28:16;6.80;;;1.90;;
71646;SDS011;59706;45.634;11.704;2024-03-29T12:30:46;6.40;;;2.20;;
71646;SDS011;59706;45.634;11.704;2024-03-29T12:33:18;6.00;;;2.30;;
71646;SDS011;59706;45.634;11.704;2024-03-29T12:35:49;6.20;;;2.20;;
71646;SDS011;59706;45.634;11.704;2024-03-29T12:38:19;6.30;;;2.00;;
71646;SDS011;59706;45.634;11.704;2024-03-29T12:40:47;6.10;;;1.80;;
71646;SDS011;59706;45.634;11.704;2024-03-29T12:43:23;7.50;;;2.10;;
71646;SDS011;59706;45.634;11.704;2024-03-29T12:45:50;6.20;;;1.80;;
71646;SDS011;59706;45.634;11.704;2024-03-29T12:48:22;6.30;;;1.90;;
71646;SDS011;59706;45.634;11.704;2024-03-29T12:50:49;6.80;;;2.30;;
71646;SDS011;59706;45.634;11.704;2024-03-29T12:53:17;7.90;;;1.90;;
71646;SDS011;59706;45.634;11.704;2024-03-29T12:55:44;7.60;;;2.20;;
71646;SDS011;59706;45.634;11.704;2024-03-29T12:58:12;6.20;;;1.90;;
71646;SDS011;59706;45.634;11.704;2024-03-29T13:00:43;6.30;;;2.00;;
71646;SDS011;59706;45.634;11.704;2024-03-29T13:03:09;7.60;;;1.90;;
71646;SDS011;59706;45.634;11.704;2024-03-29T13:05:36;5.90;;;2.30;;
71646;SDS011;59706;45.634;11.704;2024-03-29T13:08:08;6.50;;;1.50;;
71646;SDS011;59706;45.634;11.704;2024-03-29T13:10:36;6.50;;;1.90;;
71646;SDS011;59706;45.634;11.704;2024-03-29T13:13:10;7.20;;;2.20;;
71646;SDS011;59706;45.634;11.704;2024-03-29T13:15:45;8.10;;;2.30;;
71646;SDS011;59706;45.634;11.704;2024-03-29T13:18:13;8.20;;;2.50;;
71646;SDS011;59706;45.634;11.704;2024-03-29T13:20:42;7.40;;;2.40;;
71646;SDS011;59706;45.634;11.704;2024-03-29T13:23:10;8.90;;;2.80;;
71646;SDS011;59706;45.634;11.704;2024-03-29T13:25:37;9.20;;;2.10;;
71646;SDS011;59706;45.634;11.704;2024-03-29T13:28:02;5.20;;;1.70;;
71646;SDS011;59706;45.634;11.704;2024-03-29T13:30:28;6.40;;;2.40;;
71646;SDS011;59706;45.634;11.704;2024-03-29T13:32:55;6.90;;;1.70;;
71646;SDS011;59706;45.634;11.704;2024-03-29T13:35:21;6.90;;;1.90;;
71646;SDS011;59706;45.634;11.704;2024-03-29T13:37:49;7.00;;;2.20;;
71646;SDS011;59706;45.634;11.704;2024-03-29T13:40:16;6.30;;;1.70;;
71646;SDS011;59706;45.634;11.704;2024-03-29T13:42:44;7.40;;;1.80;;
71646;SDS011;59706;45.634;11.704;2024-03-29T13:45:11;7.10;;;2.00;;
71646;SDS011;59706;45.634;11.704;2024-03-29T13:47:38;8.10;;;2.10;;
71646;SDS011;59706;45.634;11.704;2024-03-29T13:50:07;6.30;;;1.90;;
71646;SDS011;59706;45.634;11.704;2024-03-29T13:52:36;6.30;;;1.70;;
71646;SDS011;59706;45.634;11.704;2024-03-29T13:55:05;7.10;;;2.20;;
71646;SDS011;59706;45.634;11.704;2024-03-29T13:57:32;5.80;;;1.90;;
71646;SDS011;59706;45.634;11.704;2024-03-29T13:59:58;7.80;;;2.30;;
71646;SDS011;59706;45.634;11.704;2024-03-29T14:02:25;8.10;;;1.80;;
71646;SDS011;59706;45.634;11.704;2024-03-29T14:04:53;6.30;;;2.20;;
71646;SDS011;59706;45.634;11.704;2024-03-29T14:07:19;7.40;;;2.00;;
71646;SDS011;59706;45.634;11.704;2024-03-29T14:09:46;7.60;;;1.80;;
71646;SDS011;59706;45.634;11.704;2024-03-29T14:12:13;7.60;;;2.40;;
71646;SDS011;59706;45.634;11.704;2024-03-29T14:14:40;8.50;;;2.90;;
71646;SDS011;59706;45.634;11.704;2024-03-29T14:17:13;5.80;;;1.70;;
71646;SDS011;59706;45.634;11.704;2024-03-29T14:19:40;6.40;;;1.90;;
71646;SDS011;59706;45.634;11.704;2024-03-29T14:22:07;7.00;;;2.00;;
71646;SDS011;59706;45.634;11.704;2024-03-29T14:24:34;6.70;;;1.80;;
71646;SDS011;59706;45.634;11.704;2024-03-29T14:27:05;6.80;;;1.80;;
71646;SDS011;59706;45.634;11.704;2024-03-29T14:29:32;6.40;;;1.60;;
71646;SDS011;59706;45.634;11.704;2024-03-29T14:32:02;6.60;;;2.00;;
71646;SDS011;59706;45.634;11.704;2024-03-29T14:34:28;7.30;;;2.00;;
71646;SDS011;59706;45.634;11.704;2024-03-29T14:37:02;6.60;;;1.90;;
71646;SDS011;59706;45.634;11.704;2024-03-29T14:39:29;7.20;;;2.00;;
71646;SDS011;59706;45.634;11.704;2024-03-29T14:41:55;8.10;;;2.00;;
71646;SDS011;59706;45.634;11.704;2024-03-29T14:44:24;6.90;;;1.80;;